Mairena del Alcor, Spain
Current Conditions -  °F | °C
As of 10:30 AM on Monday 20 Oct 2014 (Local Time) from LEZL Reporting Station
Clear Clear  
Wind Chill: 72°   Ceiling: Unl
Heat Index: 72°   Visibility: 6mi
Dew Point: 48°   Wind: 13mph
Humidity: 43%   Direction: 60°ENE
Pressure: 30.03"   Gusts: NA
Location:  37.37°N, 5.75°W
Report Text: LEZL 200830Z 06011KT CAVOK 22/09 Q1017 NOSIG
Loading
Personal Weather Stations






























Interactive Weather Map
Tropical Storm Tracking
New forecast layout! Learn more

10-Day Weather Forecast

Advertisements
Track Severe Weather on mobile